EHGR

Gilze Rijen Air Base Airport

Breda, The Netherlands
METAR EHGR 242055Z AUTO 26004KT 9999 NCD 08/06 Q1037 BLU
Observed Flight Rules
Sep-24 @ 20:55 UTC (28 minutes ago) Visual Flight Rules
Wind Visibility Clouds
260° at 4 knots 10,000+ meters
  • Clear skies
Temperatures Readings
Current 8°C / 46°F
Dewpoint 6°C / 43°F
Humidity 87%
Altimeter 30.62" Hg
Pressure 1037 hPa
Elevation 13
METAR EHGR 242055Z AUTO 26004KT 9999 NCD 08/06 Q1037 BLU
Observed Flight Rules
Sep-24 @ 20:55 UTC
(28 minutes ago)
VFR
Wind Visibility
260° at 4 knots 10,000+ meters
Clouds
  • Clear skies
Temperature Dewpoint
8°C / 46°F 6°C / 43°F
Humidity Altimeter Pressure
87% 30.62" Hg 1037 hPa